Time;durP1;ratioP1;P1;durP2;ratioP2;P2;SDS_P1;SDS_P2;PMS_P1;PMS_P2;Temp;Humidity;BMP_temperature;BMP_pressure;BME280_temperature;BME280_humidity;BME280_pressure;Samples;Min_cycle;Max_cycle;Signal;HPM_P1;HPM_P2
2022/12/29 03:01:21;;;;;;;9.00;8.50;;;9.80;99.90;;;;;;5734234;23;20675;-80
2022/12/29 03:04:03;;;;;;;8.80;8.30;;;9.80;99.90;;;;;;4901068;29;20209;-80
2022/12/29 03:06:39;;;;;;;9.00;8.40;;;9.80;99.90;;;;;;4897440;29;20248;-79
2022/12/29 03:09:17;;;;;;;8.63;8.00;;;9.80;99.90;;;;;;4897882;29;20242;-80
2022/12/29 03:12:09;;;;;;;8.80;8.30;;;9.90;99.90;;;;;;4892204;29;20228;-79
2022/12/29 03:17:46;;;;;;;8.67;8.17;;;9.90;99.90;;;;;;4892169;29;20217;-80
2022/12/29 03:20:26;;;;;;;8.60;8.07;;;9.90;99.90;;;;;;4896879;29;20204;-80
2022/12/29 03:23:01;;;;;;;8.97;8.37;;;9.90;99.90;;;;;;4895123;29;20197;-79
2022/12/29 03:25:32;;;;;;;8.70;8.20;;;9.90;99.90;;;;;;4912480;29;20215;-80
2022/12/29 03:28:05;;;;;;;8.80;8.20;;;9.90;99.90;;;;;;4897783;29;20736;-79
2022/12/29 03:30:38;;;;;;;9.13;8.53;;;9.90;99.90;;;;;;4905764;29;20235;-80
2022/12/29 03:33:10;;;;;;;8.60;8.10;;;10.00;99.90;;;;;;4897021;29;20208;-80
2022/12/29 03:35:41;;;;;;;8.80;8.30;;;10.00;99.90;;;;;;4897428;29;20201;-80
2022/12/29 03:38:16;;;;;;;9.23;8.63;;;10.00;99.90;;;;;;4896708;29;20204;-80
2022/12/29 03:40:48;;;;;;;9.07;8.30;;;9.90;99.90;;;;;;4896859;29;20288;-79
2022/12/29 03:43:16;;;;;;;8.80;8.20;;;9.90;99.90;;;;;;4898351;29;20678;-79
2022/12/29 03:45:43;;;;;;;8.67;8.17;;;9.90;99.90;;;;;;4897637;29;20198;-79
2022/12/29 03:48:12;;;;;;;8.70;8.20;;;9.80;99.90;;;;;;4897272;29;20705;-79
2022/12/29 03:50:41;;;;;;;8.60;8.10;;;9.90;99.90;;;;;;4897892;29;20678;-80
2022/12/29 03:53:08;;;;;;;9.10;8.50;;;9.90;99.90;;;;;;4904821;29;20211;-78
2022/12/29 03:55:35;;;;;;;9.30;8.80;;;9.90;99.90;;;;;;4911346;29;20201;-78
2022/12/29 03:58:02;;;;;;;8.73;8.23;;;10.00;99.90;;;;;;4900227;29;20223;-77
2022/12/29 04:00:47;;;;;;;9.40;8.90;;;9.90;99.90;;;;;;4912694;29;20236;-77
2022/12/29 04:03:16;;;;;;;9.57;8.90;;;9.90;99.90;;;;;;4897532;29;20204;-78
2022/12/29 04:05:43;;;;;;;9.10;8.50;;;9.90;99.90;;;;;;4899675;29;20199;-79
2022/12/29 04:08:10;;;;;;;8.80;8.30;;;9.80;99.90;;;;;;4899687;29;20206;-82
2022/12/29 04:10:36;;;;;;;9.50;8.90;;;9.80;99.90;;;;;;4896866;29;20319;-79
2022/12/29 04:13:05;;;;;;;9.67;9.00;;;9.70;99.90;;;;;;4897619;29;20206;-81
2022/12/29 04:15:32;;;;;;;9.50;8.80;;;9.70;99.90;;;;;;4900185;29;20200;-81
2022/12/29 04:17:59;;;;;;;9.30;8.63;;;9.70;99.90;;;;;;4916090;29;20209;-79
2022/12/29 04:23:13;;;;;;;9.43;8.93;;;9.70;99.90;;;;;;4916590;29;20249;-81
2022/12/29 04:25:40;;;;;;;9.20;8.70;;;9.70;99.90;;;;;;4901131;29;20228;-80
2022/12/29 04:28:09;;;;;;;9.27;8.67;;;9.70;99.90;;;;;;4901976;29;20204;-80
2022/12/29 04:30:46;;;;;;;10.05;9.45;;;9.70;99.90;;;;;;4904716;29;20955;-81
2022/12/29 04:33:19;;;;;;;9.70;9.10;;;9.70;99.90;;;;;;4903431;29;20209;-80
2022/12/29 04:35:48;;;;;;;10.13;9.53;;;9.60;99.90;;;;;;4908378;29;20208;-80
2022/12/29 04:38:15;;;;;;;10.10;9.50;;;9.50;99.90;;;;;;4902027;29;20272;-79
2022/12/29 04:40:44;;;;;;;10.13;9.53;;;9.40;99.90;;;;;;4902656;29;20192;-81
2022/12/29 04:43:11;;;;;;;9.77;9.17;;;9.30;99.90;;;;;;4905674;29;20200;-80
2022/12/29 04:45:57;;;;;;;9.97;9.30;;;9.30;99.90;;;;;;4911049;29;20204;-80
2022/12/29 04:48:37;;;;;;;10.40;9.70;;;9.20;99.90;;;;;;4903606;29;20199;-79
2022/12/29 04:51:31;;;;;;;9.90;9.40;;;9.20;99.90;;;;;;4898355;29;20773;-79
2022/12/29 04:53:58;;;;;;;9.80;9.30;;;9.20;99.90;;;;;;4914096;29;20672;-78
2022/12/29 04:56:27;;;;;;;10.30;9.70;;;9.10;99.90;;;;;;4897826;29;20206;-80
2022/12/29 04:58:54;;;;;;;10.40;9.70;;;9.00;99.90;;;;;;4898041;29;20224;-80
2022/12/29 05:01:22;;;;;;;10.33;9.73;;;8.90;99.90;;;;;;4898040;29;20232;-80
2022/12/29 05:03:51;;;;;;;9.63;9.13;;;8.90;99.90;;;;;;4898935;29;20252;-80
2022/12/29 05:06:17;;;;;;;9.70;9.20;;;8.90;99.90;;;;;;4899055;29;20225;-80
2022/12/29 05:08:46;;;;;;;9.80;9.30;;;8.90;99.90;;;;;;4899619;29;20572;-80
2022/12/29 05:11:13;;;;;;;10.00;9.40;;;9.00;99.90;;;;;;4898237;29;20311;-80
2022/12/29 05:13:40;;;;;;;10.10;9.40;;;9.00;99.90;;;;;;4899637;29;20211;-80
2022/12/29 05:16:08;;;;;;;10.03;9.43;;;9.10;99.90;;;;;;4895760;29;20768;-81
2022/12/29 05:18:35;;;;;;;9.93;9.33;;;9.10;99.90;;;;;;4913744;29;20196;-79
2022/12/29 05:21:03;;;;;;;10.20;9.60;;;9.20;99.90;;;;;;4897330;29;20224;-81
2022/12/29 05:23:30;;;;;;;10.50;9.80;;;9.30;99.90;;;;;;4897565;29;20224;-80
2022/12/29 05:26:03;;;;;;;9.57;8.97;;;9.30;99.90;;;;;;4898629;29;20223;-79
2022/12/29 05:28:37;;;;;;;9.37;8.87;;;9.30;99.90;;;;;;4912864;29;20207;-79
2022/12/29 05:31:11;;;;;;;9.83;9.20;;;9.40;99.90;;;;;;4896062;29;20228;-80
2022/12/29 05:33:38;;;;;;;10.30;9.60;;;9.40;99.90;;;;;;4896830;29;20658;-79
2022/12/29 05:36:06;;;;;;;10.10;9.50;;;9.40;99.90;;;;;;4896566;29;20253;-79
2022/12/29 05:38:33;;;;;;;9.50;9.00;;;9.30;99.90;;;;;;4897428;29;20209;-78
2022/12/29 05:41:00;;;;;;;9.50;8.93;;;9.30;99.90;;;;;;4895879;29;20272;-78
2022/12/29 05:43:49;;;;;;;10.00;9.40;;;9.30;99.90;;;;;;4898846;29;20224;-79
2022/12/29 05:46:29;;;;;;;9.63;9.13;;;9.40;99.90;;;;;;4899195;29;20665;-79
2022/12/29 05:49:19;;;;;;;9.50;8.90;;;9.40;99.90;;;;;;4899552;29;20300;-79
2022/12/29 05:51:53;;;;;;;9.77;9.23;;;9.50;99.90;;;;;;4899681;29;20610;-79
2022/12/29 05:54:20;;;;;;;10.00;9.40;;;9.50;99.90;;;;;;4900438;29;20235;-80
2022/12/29 05:56:47;;;;;;;9.83;9.23;;;9.50;99.90;;;;;;4900437;29;20204;-79
2022/12/29 05:59:15;;;;;;;9.20;8.70;;;9.60;99.90;;;;;;4900234;29;20197;-79
2022/12/29 06:01:43;;;;;;;9.90;9.30;;;9.60;99.90;;;;;;4899356;29;20224;-80
2022/12/29 06:04:10;;;;;;;9.73;9.03;;;9.60;99.90;;;;;;4899656;29;20291;-80
2022/12/29 06:06:38;;;;;;;9.70;9.10;;;9.60;99.90;;;;;;4899914;29;20233;-80
2022/12/29 06:09:06;;;;;;;10.30;9.70;;;9.60;99.90;;;;;;4900020;29;20761;-80
2022/12/29 06:11:33;;;;;;;10.53;9.80;;;9.60;99.90;;;;;;4898847;29;20292;-79
2022/12/29 06:14:00;;;;;;;10.20;9.47;;;9.70;99.90;;;;;;4911986;29;20685;-80
2022/12/29 06:16:28;;;;;;;10.03;9.43;;;9.70;99.90;;;;;;4892494;29;20293;-79
2022/12/29 06:18:59;;;;;;;9.97;9.37;;;9.80;99.90;;;;;;4899764;29;20201;-79
2022/12/29 06:21:25;;;;;;;10.20;9.53;;;9.80;99.90;;;;;;4898720;29;20288;-80
2022/12/29 06:23:52;;;;;;;10.23;9.53;;;9.90;99.90;;;;;;4899559;29;20701;-79
2022/12/29 06:26:20;;;;;;;9.90;9.30;;;9.90;99.90;;;;;;4899403;29;20256;-79
2022/12/29 06:28:48;;;;;;;10.00;9.40;;;9.90;99.90;;;;;;4899446;29;20197;-79
2022/12/29 06:31:16;;;;;;;11.10;10.50;;;9.90;99.90;;;;;;4898541;29;20319;-80
2022/12/29 06:33:44;;;;;;;11.13;10.37;;;9.90;99.90;;;;;;4899319;29;20205;-80
2022/12/29 06:36:11;;;;;;;11.50;10.80;;;10.00;99.90;;;;;;4899503;29;20227;-79
2022/12/29 06:38:40;;;;;;;11.33;10.57;;;10.00;99.90;;;;;;4899313;29;20197;-80
2022/12/29 06:41:07;;;;;;;11.53;10.63;;;10.10;99.90;;;;;;4899147;29;20303;-80
2022/12/29 06:43:52;;;;;;;11.20;10.50;;;10.10;99.90;;;;;;4900432;29;20263;-80
2022/12/29 06:46:29;;;;;;;11.03;10.33;;;10.10;99.90;;;;;;4913496;29;20272;-80
2022/12/29 06:48:57;;;;;;;11.13;10.33;;;10.20;99.90;;;;;;4900662;29;20209;-78
2022/12/29 06:51:24;;;;;;;10.93;10.33;;;10.20;99.90;;;;;;4901324;29;20249;-80
2022/12/29 06:53:51;;;;;;;11.13;10.43;;;10.20;99.90;;;;;;4900135;29;20203;-77
2022/12/29 06:56:18;;;;;;;10.67;10.07;;;10.20;99.90;;;;;;4916741;29;20209;-80
2022/12/29 06:58:44;;;;;;;10.87;10.10;;;10.30;99.90;;;;;;4916836;29;20229;-79
2022/12/29 07:01:11;;;;;;;11.80;11.10;;;10.30;99.90;;;;;;4900029;29;20248;-78
2022/12/29 07:03:38;;;;;;;10.80;10.20;;;10.30;99.90;;;;;;4914441;29;20197;-80
2022/12/29 07:06:07;;;;;;;11.00;10.40;;;10.40;99.90;;;;;;4916015;29;20264;-80
2022/12/29 07:08:34;;;;;;;11.20;10.50;;;10.40;99.90;;;;;;4900775;29;20220;-80
2022/12/29 07:11:00;;;;;;;11.33;10.43;;;10.50;99.90;;;;;;4917276;29;20247;-80
2022/12/29 07:13:27;;;;;;;11.97;11.17;;;10.50;99.90;;;;;;4894765;29;20209;-81
2022/12/29 07:15:54;;;;;;;11.60;10.90;;;10.50;99.90;;;;;;4899728;29;20252;-79
2022/12/29 07:18:21;;;;;;;11.80;11.10;;;10.50;99.90;;;;;;4898131;29;20266;-79
2022/12/29 07:20:47;;;;;;;11.30;10.70;;;10.60;99.90;;;;;;4897431;29;20229;-80
2022/12/29 07:23:16;;;;;;;11.30;10.63;;;10.60;99.90;;;;;;4899527;29;20825;-79
2022/12/29 07:25:42;;;;;;;10.97;10.20;;;10.60;99.90;;;;;;4899456;29;20627;-81
2022/12/29 07:28:09;;;;;;;11.10;10.30;;;10.60;99.90;;;;;;4899556;29;20686;-80
2022/12/29 07:30:38;;;;;;;11.20;10.50;;;10.50;99.90;;;;;;4898006;29;20274;-79
2022/12/29 07:33:05;;;;;;;11.17;10.57;;;10.50;99.90;;;;;;4898712;29;20202;-79
2022/12/29 07:35:32;;;;;;;11.33;10.63;;;10.50;99.90;;;;;;4898116;29;20257;-78
2022/12/29 07:37:58;;;;;;;10.90;10.20;;;10.50;99.90;;;;;;4900554;29;20241;-78
2022/12/29 07:40:26;;;;;;;10.73;10.10;;;10.50;99.90;;;;;;4898962;29;20291;-80
2022/12/29 07:42:53;;;;;;;10.60;10.00;;;10.50;99.90;;;;;;4914691;29;20208;-80
2022/12/29 07:45:29;;;;;;;10.53;9.93;;;10.50;99.90;;;;;;4913943;29;20204;-80
2022/12/29 07:48:11;;;;;;;11.07;10.17;;;10.60;99.90;;;;;;4897842;29;20201;-80
2022/12/29 07:50:38;;;;;;;10.73;10.07;;;10.60;99.90;;;;;;4896766;29;20739;-79
2022/12/29 07:53:05;;;;;;;10.50;9.90;;;10.60;99.90;;;;;;4897433;29;20209;-80
2022/12/29 07:55:33;;;;;;;10.77;10.07;;;10.70;99.90;;;;;;4898488;29;20261;-79
2022/12/29 07:58:00;;;;;;;11.00;10.30;;;10.70;99.90;;;;;;4898799;29;20232;-79
2022/12/29 08:00:27;;;;;;;10.60;10.00;;;10.80;99.90;;;;;;4898854;29;20201;-79
2022/12/29 08:02:53;;;;;;;10.83;10.10;;;10.80;99.90;;;;;;4898051;29;20198;-80
2022/12/29 08:05:20;;;;;;;10.43;9.80;;;10.90;99.90;;;;;;4897881;29;20210;-80
2022/12/29 08:07:47;;;;;;;10.70;10.10;;;11.00;99.90;;;;;;4897853;29;20206;-79
2022/12/29 08:10:15;;;;;;;10.37;9.77;;;11.10;99.90;;;;;;4896538;29;20268;-80
2022/12/29 08:12:44;;;;;;;11.00;9.90;;;11.20;99.90;;;;;;4898877;29;20226;-79
2022/12/29 08:15:12;;;;;;;10.60;9.80;;;11.30;99.90;;;;;;4899941;29;20225;-81
2022/12/29 08:17:39;;;;;;;10.60;10.00;;;11.40;99.90;;;;;;4900697;29;20222;-81
2022/12/29 08:20:07;;;;;;;11.00;10.30;;;11.50;99.90;;;;;;4898058;29;20632;-80
2022/12/29 08:22:34;;;;;;;10.83;10.23;;;11.60;99.90;;;;;;4900918;29;20286;-79
2022/12/29 08:25:01;;;;;;;10.57;9.97;;;11.70;99.90;;;;;;4895523;29;20737;-81
2022/12/29 08:27:28;;;;;;;10.90;10.20;;;11.70;99.90;;;;;;4898367;29;20266;-80
2022/12/29 08:29:56;;;;;;;11.10;10.50;;;11.70;99.90;;;;;;4914764;29;20620;-80
2022/12/29 08:32:23;;;;;;;11.03;10.33;;;11.80;99.90;;;;;;4914806;29;20705;-80
2022/12/29 08:34:50;;;;;;;10.97;10.33;;;11.80;99.90;;;;;;4900649;29;20206;-81
2022/12/29 08:37:17;;;;;;;10.60;10.00;;;11.80;99.90;;;;;;4915902;29;20208;-79
2022/12/29 08:39:43;;;;;;;10.47;9.87;;;11.80;99.90;;;;;;4900551;29;20206;-81
2022/12/29 08:42:10;;;;;;;10.93;10.30;;;11.80;99.90;;;;;;4899612;29;20744;-80
2022/12/29 08:44:37;;;;;;;11.17;10.30;;;11.80;99.90;;;;;;4901017;29;20203;-80
2022/12/29 08:47:06;;;;;;;11.07;10.47;;;11.90;99.90;;;;;;4900203;29;20233;-80
2022/12/29 08:49:33;;;;;;;11.03;10.43;;;11.90;99.90;;;;;;4899865;29;20204;-80
2022/12/29 08:52:00;;;;;;;11.73;10.70;;;11.90;99.90;;;;;;4899395;29;20605;-80
2022/12/29 08:54:27;;;;;;;11.00;10.30;;;12.00;99.90;;;;;;4893251;29;20234;-80
2022/12/29 08:56:55;;;;;;;10.80;10.20;;;12.00;99.90;;;;;;4899285;29;20204;-80
2022/12/29 08:59:26;;;;;;;10.90;10.20;;;12.00;99.90;;;;;;4898699;29;20275;-79
2022/12/29 09:01:53;;;;;;;10.60;9.80;;;12.00;99.90;;;;;;4898846;29;20252;-80
2022/12/29 09:04:23;;;;;;;10.57;9.87;;;12.00;99.90;;;;;;4898986;29;20210;-80
2022/12/29 09:06:50;;;;;;;10.67;9.97;;;12.00;99.90;;;;;;4898159;29;20212;-82
2022/12/29 09:09:18;;;;;;;10.70;10.00;;;12.10;99.90;;;;;;4900737;29;20204;-81
2022/12/29 09:11:44;;;;;;;10.63;9.83;;;12.10;99.90;;;;;;4899900;29;20681;-82
2022/12/29 09:14:12;;;;;;;11.30;10.50;;;12.10;99.90;;;;;;4899781;29;20196;-79
2022/12/29 09:16:39;;;;;;;10.70;10.00;;;12.00;99.90;;;;;;4917052;29;20177;-77
2022/12/29 09:19:06;;;;;;;10.30;9.70;;;12.00;99.90;;;;;;4904165;29;20233;-78
2022/12/29 09:21:34;;;;;;;11.30;10.40;;;12.10;99.90;;;;;;4903654;29;20217;-78
2022/12/29 09:24:01;;;;;;;10.77;10.10;;;12.10;99.90;;;;;;4903686;29;20239;-77
2022/12/29 09:26:28;;;;;;;10.70;9.90;;;12.10;99.90;;;;;;4901579;29;20689;-78
2022/12/29 09:28:55;;;;;;;10.60;9.80;;;12.20;99.90;;;;;;4902724;29;20618;-77
2022/12/29 09:31:21;;;;;;;10.60;10.00;;;12.20;99.90;;;;;;4901596;29;20280;-78
2022/12/29 09:33:48;;;;;;;10.93;10.30;;;12.20;99.90;;;;;;4902195;29;20208;-78
2022/12/29 09:36:15;;;;;;;10.60;9.80;;;12.20;99.90;;;;;;4903241;29;20242;-78
2022/12/29 09:38:43;;;;;;;10.80;10.10;;;12.20;99.90;;;;;;4904999;29;20200;-78
2022/12/29 09:41:18;;;;;;;10.40;9.70;;;12.20;99.90;;;;;;4904608;29;20235;-79
2022/12/29 09:44:08;;;;;;;10.10;9.50;;;12.10;99.90;;;;;;4912536;29;20672;-79
2022/12/29 09:46:38;;;;;;;10.93;10.23;;;12.10;99.90;;;;;;4896264;29;20219;-79
2022/12/29 09:49:15;;;;;;;10.57;9.87;;;12.10;99.90;;;;;;4921550;29;20208;-78
2022/12/29 09:51:46;;;;;;;10.13;9.53;;;12.20;99.90;;;;;;4898409;29;20274;-78
2022/12/29 09:54:30;;;;;;;10.47;9.77;;;12.30;99.90;;;;;;4895655;29;20211;-77
2022/12/29 09:56:57;;;;;;;10.40;9.70;;;12.30;99.90;;;;;;4912973;29;20211;-78
2022/12/29 09:59:30;;;;;;;10.40;9.70;;;12.40;99.90;;;;;;4901457;29;20222;-78
2022/12/29 10:02:05;;;;;;;10.00;9.40;;;12.40;99.90;;;;;;4906170;29;20231;-79
2022/12/29 10:04:32;;;;;;;10.00;9.40;;;12.40;99.90;;;;;;4909979;29;20219;-78
2022/12/29 10:07:06;;;;;;;9.90;9.30;;;12.50;99.90;;;;;;4901321;29;20228;-79
2022/12/29 10:09:39;;;;;;;10.97;9.37;;;12.50;99.90;;;;;;4897976;29;20201;-80
2022/12/29 10:12:14;;;;;;;10.43;9.73;;;12.50;99.90;;;;;;4908646;29;20225;-80
2022/12/29 10:14:53;;;;;;;9.83;9.23;;;12.50;99.90;;;;;;4899087;29;20198;-80
2022/12/29 10:17:31;;;;;;;10.10;9.50;;;12.50;99.90;;;;;;4899669;29;20243;-81
2022/12/29 10:20:16;;;;;;;10.00;9.40;;;12.40;99.90;;;;;;4901515;29;20218;-80
2022/12/29 10:23:00;;;;;;;10.30;9.70;;;12.40;99.90;;;;;;4900259;29;20733;-78
2022/12/29 10:25:33;;;;;;;11.10;10.40;;;12.30;99.90;;;;;;4896221;29;20192;-79
2022/12/29 10:28:06;;;;;;;10.30;9.60;;;12.30;99.90;;;;;;4900593;29;20263;-80
2022/12/29 10:30:34;;;;;;;10.33;9.63;;;12.30;99.90;;;;;;4898946;29;20249;-80
2022/12/29 10:33:06;;;;;;;10.53;9.83;;;12.30;99.90;;;;;;4898817;29;20288;-79
2022/12/29 10:35:38;;;;;;;10.33;9.63;;;12.30;99.90;;;;;;4898120;29;20264;-79
2022/12/29 10:38:16;;;;;;;10.63;9.93;;;12.30;99.90;;;;;;4904254;29;20214;-79
2022/12/29 10:40:49;;;;;;;10.50;9.80;;;12.30;99.90;;;;;;4902642;29;20258;-75
2022/12/29 10:43:24;;;;;;;11.03;10.23;;;12.30;99.90;;;;;;4916972;29;20656;-80
2022/12/29 10:45:53;;;;;;;11.10;10.30;;;12.30;99.90;;;;;;4902733;29;20207;-80
2022/12/29 10:48:25;;;;;;;10.40;9.70;;;12.20;99.90;;;;;;4902792;29;20825;-80
2022/12/29 10:50:56;;;;;;;10.57;9.83;;;12.20;99.90;;;;;;4903027;29;20283;-79
2022/12/29 10:53:26;;;;;;;10.60;9.70;;;12.20;99.90;;;;;;4897162;29;20209;-79
2022/12/29 10:55:56;;;;;;;10.57;9.80;;;12.20;99.90;;;;;;4904736;29;20616;-80
2022/12/29 10:58:24;;;;;;;10.33;9.73;;;12.20;99.90;;;;;;4904279;29;20669;-80
2022/12/29 11:00:54;;;;;;;9.80;9.20;;;12.20;99.90;;;;;;4903316;29;20236;-79
2022/12/29 11:03:49;;;;;;;9.93;9.23;;;12.20;99.90;;;;;;4900146;29;20214;-79
2022/12/29 11:06:22;;;;;;;10.57;9.90;;;12.20;99.90;;;;;;4899344;29;20745;-79
2022/12/29 11:08:56;;;;;;;9.67;9.07;;;12.30;99.90;;;;;;4902187;29;20751;-80
2022/12/29 11:11:28;;;;;;;10.10;9.50;;;12.30;99.90;;;;;;4900947;29;20236;-80
2022/12/29 11:14:02;;;;;;;10.50;9.80;;;12.30;99.90;;;;;;4899223;29;20275;-81
2022/12/29 11:16:31;;;;;;;11.30;10.50;;;12.40;99.90;;;;;;4895121;29;20211;-80
2022/12/29 11:18:58;;;;;;;11.00;10.00;;;12.40;99.90;;;;;;4899199;29;20246;-80
2022/12/29 11:21:31;;;;;;;10.30;9.60;;;12.60;99.90;;;;;;4898171;29;20600;-79
2022/12/29 11:24:00;;;;;;;10.70;9.90;;;12.70;99.90;;;;;;4899974;29;20212;-80
2022/12/29 11:26:30;;;;;;;10.47;9.77;;;12.80;99.90;;;;;;4909153;29;20224;-80
2022/12/29 11:29:30;;;;;;;10.40;9.50;;;12.80;99.90;;;;;;4895703;29;20264;-80
2022/12/29 11:31:59;;;;;;;9.80;9.10;;;12.80;99.90;;;;;;4886280;29;20254;-79
2022/12/29 11:34:31;;;;;;;9.50;8.90;;;12.80;99.90;;;;;;4899764;29;20196;-77
2022/12/29 11:37:02;;;;;;;10.53;9.73;;;12.80;99.90;;;;;;4896797;29;20589;-77
2022/12/29 11:39:37;;;;;;;10.00;9.30;;;12.80;99.90;;;;;;4896375;29;20251;-81
2022/12/29 11:42:13;;;;;;;10.30;9.70;;;12.90;99.90;;;;;;4897820;29;20601;-81
2022/12/29 11:44:44;;;;;;;10.53;9.93;;;13.00;99.90;;;;;;4902540;29;20184;-81
2022/12/29 11:47:21;;;;;;;11.20;10.50;;;13.00;99.90;;;;;;4895257;29;20209;-80
2022/12/29 11:49:52;;;;;;;10.73;10.07;;;13.10;99.90;;;;;;4894776;29;20212;-80
2022/12/29 11:52:23;;;;;;;11.27;10.50;;;13.10;99.90;;;;;;4912398;29;20232;-81
2022/12/29 11:54:50;;;;;;;9.90;9.20;;;13.10;99.90;;;;;;4896867;29;20208;-79
2022/12/29 11:57:20;;;;;;;10.23;9.53;;;13.10;99.90;;;;;;4898602;29;20216;-81
2022/12/29 11:59:51;;;;;;;10.37;9.47;;;13.00;99.90;;;;;;4895968;29;20205;-81
2022/12/29 12:02:43;;;;;;;10.23;9.60;;;12.90;99.90;;;;;;4897444;29;20288;-80
2022/12/29 12:05:28;;;;;;;11.13;10.43;;;12.70;99.90;;;;;;4895526;29;20220;-80
2022/12/29 12:08:00;;;;;;;11.43;10.63;;;12.70;99.90;;;;;;4893781;29;20207;-80
2022/12/29 12:10:32;;;;;;;10.90;10.20;;;12.50;99.90;;;;;;4898221;29;20201;-80
2022/12/29 12:13:09;;;;;;;10.30;9.70;;;12.50;99.90;;;;;;4900057;29;20229;-80
2022/12/29 12:15:40;;;;;;;10.90;10.13;;;12.40;99.90;;;;;;4897450;29;20222;-79
2022/12/29 12:18:12;;;;;;;11.53;10.83;;;12.30;99.90;;;;;;4900779;29;20220;-81
2022/12/29 12:20:46;;;;;;;11.20;10.57;;;12.30;99.90;;;;;;4890206;29;20204;-80
2022/12/29 12:23:27;;;;;;;10.60;9.80;;;12.20;99.90;;;;;;4911777;29;20203;-81
2022/12/29 12:26:03;;;;;;;10.40;9.80;;;12.20;99.90;;;;;;4902428;29;20335;-82
2022/12/29 12:28:38;;;;;;;11.80;11.10;;;12.20;99.90;;;;;;4914082;29;20917;-78
2022/12/29 12:31:12;;;;;;;11.73;11.00;;;12.20;99.90;;;;;;4901010;29;20634;-78
2022/12/29 12:33:45;;;;;;;10.57;9.90;;;12.10;99.90;;;;;;4911430;29;20232;-78
2022/12/29 12:36:40;;;;;;;10.20;9.60;;;12.10;99.90;;;;;;4899063;29;20196;-78
2022/12/29 12:39:12;;;;;;;10.57;9.87;;;12.00;99.90;;;;;;4896708;29;20199;-78
2022/12/29 12:41:50;;;;;;;10.20;9.60;;;11.90;99.90;;;;;;4892380;29;20218;-78
2022/12/29 12:44:25;;;;;;;10.33;9.73;;;11.90;99.90;;;;;;4898500;29;20301;-78
2022/12/29 12:47:20;;;;;;;10.60;9.90;;;11.90;99.90;;;;;;4899024;29;20206;-78
2022/12/29 12:50:18;;;;;;;10.47;9.80;;;11.90;99.90;;;;;;4904984;29;20212;-78
2022/12/29 12:53:05;;;;;;;11.33;10.50;;;12.00;99.90;;;;;;4903615;29;20311;-78
2022/12/29 12:55:43;;;;;;;11.57;10.90;;;12.00;99.90;;;;;;4903251;29;20263;-78
2022/12/29 12:58:20;;;;;;;10.63;9.97;;;12.00;99.90;;;;;;4902346;29;20689;-78
2022/12/29 13:01:04;;;;;;;10.73;10.13;;;12.10;99.90;;;;;;4903457;29;20780;-78
2022/12/29 13:03:41;;;;;;;10.60;10.00;;;12.10;99.90;;;;;;4901852;29;20196;-78
2022/12/29 13:06:19;;;;;;;11.30;10.40;;;12.10;99.90;;;;;;4902653;29;20702;-78
2022/12/29 13:09:05;;;;;;;10.23;9.63;;;12.00;99.90;;;;;;4913247;29;20203;-79
2022/12/29 13:11:46;;;;;;;10.60;9.90;;;12.00;99.90;;;;;;4898572;29;20277;-78
2022/12/29 13:14:26;;;;;;;10.90;10.30;;;12.00;99.90;;;;;;4901900;29;20693;-78
2022/12/29 13:17:01;;;;;;;10.53;9.83;;;11.90;99.90;;;;;;4903922;29;20259;-77
2022/12/29 13:19:35;;;;;;;11.00;10.27;;;12.00;99.90;;;;;;4902556;29;20192;-78
2022/12/29 13:22:09;;;;;;;10.27;9.60;;;12.00;99.90;;;;;;4901202;29;20231;-77
2022/12/29 13:24:47;;;;;;;10.20;9.50;;;12.00;99.90;;;;;;4902386;29;20256;-78
2022/12/29 13:27:21;;;;;;;10.87;10.13;;;12.00;99.90;;;;;;4900895;29;20200;-77
2022/12/29 13:29:56;;;;;;;11.30;10.50;;;12.00;99.90;;;;;;4900250;29;20245;-77
2022/12/29 13:32:35;;;;;;;10.63;9.93;;;12.00;99.90;;;;;;4900095;29;20231;-79
2022/12/29 13:35:15;;;;;;;10.90;10.20;;;12.00;99.90;;;;;;4899629;29;20212;-78
2022/12/29 13:37:52;;;;;;;11.00;10.30;;;11.90;99.90;;;;;;4908306;29;20216;-77
2022/12/29 13:40:23;;;;;;;10.63;10.03;;;11.90;99.90;;;;;;4900359;29;20197;-79
2022/12/29 13:42:51;;;;;;;10.43;9.83;;;11.90;99.90;;;;;;4902804;29;20204;-78
2022/12/29 13:45:21;;;;;;;11.03;10.23;;;12.00;99.90;;;;;;4902010;29;20215;-77
2022/12/29 13:47:56;;;;;;;10.40;9.80;;;12.00;99.90;;;;;;4904076;29;20201;-78
2022/12/29 13:50:27;;;;;;;11.10;10.40;;;12.10;99.90;;;;;;4904916;29;20227;-78
2022/12/29 13:53:04;;;;;;;12.57;11.53;;;12.10;99.90;;;;;;4905318;29;20284;-77
2022/12/29 13:55:38;;;;;;;11.83;11.07;;;12.10;99.90;;;;;;4910289;29;20200;-80
2022/12/29 13:58:13;;;;;;;12.00;11.20;;;12.10;99.90;;;;;;4905759;29;20283;-79
2022/12/29 14:00:49;;;;;;;10.73;10.03;;;12.10;99.90;;;;;;4905421;29;20203;-79
2022/12/29 14:03:43;;;;;;;11.60;10.70;;;12.10;99.90;;;;;;4900546;29;20204;-78
2022/12/29 14:06:19;;;;;;;11.13;10.33;;;12.10;99.90;;;;;;4901553;29;20693;-77
2022/12/29 14:08:47;;;;;;;11.23;10.53;;;12.10;99.90;;;;;;4900639;29;20299;-78
2022/12/29 14:11:16;;;;;;;11.00;10.30;;;12.10;99.90;;;;;;4900162;29;20272;-77
2022/12/29 14:13:46;;;;;;;11.20;10.37;;;12.10;99.90;;;;;;4901589;29;20224;-77
2022/12/29 14:16:27;;;;;;;10.80;10.20;;;12.10;99.90;;;;;;4903247;29;20226;-78
2022/12/29 14:18:58;;;;;;;10.83;10.13;;;12.00;99.90;;;;;;4901788;29;20208;-78
2022/12/29 14:21:29;;;;;;;11.20;10.50;;;11.90;99.90;;;;;;4901020;29;20240;-77
2022/12/29 14:24:17;;;;;;;11.00;10.30;;;11.90;99.90;;;;;;4901118;29;20214;-79
2022/12/29 14:26:44;;;;;;;10.77;9.93;;;11.90;99.90;;;;;;4895836;29;20199;-77
2022/12/29 14:29:43;;;;;;;10.67;9.97;;;11.90;99.90;;;;;;4900946;29;20272;-78
2022/12/29 14:32:38;;;;;;;10.60;9.90;;;11.70;99.90;;;;;;4896934;29;20240;-78
2022/12/29 14:35:40;;;;;;;10.43;9.83;;;11.60;99.90;;;;;;4901088;29;20203;-78
2022/12/29 14:38:15;;;;;;;10.97;10.27;;;11.60;99.90;;;;;;4898169;29;20263;-78
2022/12/29 14:40:42;;;;;;;10.97;10.07;;;11.50;99.90;;;;;;4899225;29;20219;-77
2022/12/29 14:43:14;;;;;;;10.63;10.03;;;11.40;99.90;;;;;;4901352;29;20629;-78
2022/12/29 14:45:49;;;;;;;11.10;10.20;;;11.40;99.90;;;;;;4902882;29;20199;-77
2022/12/29 14:48:39;;;;;;;11.73;10.93;;;11.30;99.90;;;;;;4900191;29;20702;-76
2022/12/29 14:51:31;;;;;;;10.80;10.20;;;11.20;99.90;;;;;;4898672;29;20715;-77
2022/12/29 14:53:58;;;;;;;10.73;10.10;;;11.10;99.90;;;;;;4895958;29;20216;-77
2022/12/29 14:56:28;;;;;;;10.70;10.10;;;11.10;99.90;;;;;;4890755;29;20209;-76
2022/12/29 14:58:57;;;;;;;10.67;9.87;;;11.10;99.90;;;;;;4886447;29;21207;-76
2022/12/29 15:01:30;;;;;;;10.90;10.23;;;11.00;99.90;;;;;;4908457;29;20239;-77
2022/12/29 15:04:01;;;;;;;10.80;10.03;;;11.00;99.90;;;;;;4897680;29;20213;-77
2022/12/29 15:06:31;;;;;;;10.50;9.80;;;10.90;99.90;;;;;;4909965;29;20201;-76
2022/12/29 15:09:05;;;;;;;10.97;10.17;;;10.90;99.90;;;;;;4888929;29;20205;-78
2022/12/29 15:11:48;;;;;;;10.73;10.13;;;10.80;99.90;;;;;;4901612;29;20293;-78
2022/12/29 15:14:37;;;;;;;11.73;10.93;;;10.70;99.90;;;;;;4900196;29;20227;-80
2022/12/29 15:17:11;;;;;;;11.67;10.80;;;10.70;99.90;;;;;;4900255;29;20206;-78
2022/12/29 15:19:38;;;;;;;11.03;10.37;;;10.60;99.90;;;;;;4900913;29;20196;-77
2022/12/29 15:22:06;;;;;;;11.37;10.57;;;10.60;99.90;;;;;;4898634;29;20724;-78
2022/12/29 15:24:34;;;;;;;10.70;10.10;;;10.60;99.90;;;;;;4901476;29;20216;-78
2022/12/29 15:27:04;;;;;;;11.00;10.30;;;10.60;99.90;;;;;;4898311;29;20205;-76
2022/12/29 15:29:38;;;;;;;11.33;10.63;;;10.50;99.90;;;;;;4895723;29;20255;-79
2022/12/29 15:32:19;;;;;;;11.13;10.43;;;10.50;99.90;;;;;;4895601;29;20308;-79
2022/12/29 15:34:47;;;;;;;11.00;10.40;;;10.40;99.90;;;;;;4899485;29;20878;-78
2022/12/29 15:37:24;;;;;;;11.10;10.40;;;10.40;99.90;;;;;;4914103;29;20205;-78
2022/12/29 15:39:51;;;;;;;11.30;10.50;;;10.30;99.90;;;;;;4898844;29;20200;-79
2022/12/29 15:42:33;;;;;;;11.03;10.33;;;10.30;99.90;;;;;;4899904;29;20229;-78
2022/12/29 15:45:03;;;;;;;12.33;11.53;;;10.20;99.90;;;;;;4897891;29;20201;-77
2022/12/29 15:47:32;;;;;;;11.57;10.77;;;10.20;99.90;;;;;;4898401;29;20213;-79
2022/12/29 15:50:03;;;;;;;11.80;11.00;;;10.20;99.90;;;;;;4897157;29;20571;-79
2022/12/29 15:52:33;;;;;;;11.83;11.13;;;10.10;99.90;;;;;;4914813;29;20217;-78
2022/12/29 15:55:02;;;;;;;11.30;10.60;;;10.10;99.90;;;;;;4898318;29;20229;-79
2022/12/29 15:57:32;;;;;;;11.33;10.60;;;10.10;99.90;;;;;;4890217;29;20239;-76
2022/12/29 16:00:00;;;;;;;10.87;10.20;;;10.00;99.90;;;;;;4895450;29;20204;-76
2022/12/29 16:02:28;;;;;;;11.30;10.60;;;10.00;99.90;;;;;;4897932;29;20299;-84
2022/12/29 16:05:00;;;;;;;11.37;10.67;;;10.00;99.90;;;;;;4893691;29;20196;-78
2022/12/29 16:07:33;;;;;;;11.30;10.60;;;9.90;99.90;;;;;;4902883;29;20201;-80
2022/12/29 16:10:30;;;;;;;10.90;10.20;;;9.90;99.90;;;;;;4898628;29;20185;-80